sensor_id;sensor_type;location;lat;lon;timestamp;P1;durP1;ratioP1;P2;durP2;ratioP2
54665;SDS011;40566;50.006;36.180;2022-07-21T00:04:54;2.58;;;1.35;;
54665;SDS011;40566;50.006;36.180;2022-07-21T00:09:54;4.30;;;1.45;;
54665;SDS011;40566;50.006;36.180;2022-07-21T00:14:55;2.47;;;1.20;;
54665;SDS011;40566;50.006;36.180;2022-07-21T00:19:56;4.60;;;1.23;;
54665;SDS011;40566;50.006;36.180;2022-07-21T00:24:57;2.72;;;1.20;;
54665;SDS011;40566;50.006;36.180;2022-07-21T00:29:58;1.92;;;1.10;;
54665;SDS011;40566;50.006;36.180;2022-07-21T00:34:59;4.88;;;1.30;;
54665;SDS011;40566;50.006;36.180;2022-07-21T00:39:59;2.80;;;1.10;;
54665;SDS011;40566;50.006;36.180;2022-07-21T00:45:00;4.75;;;1.08;;
54665;SDS011;40566;50.006;36.180;2022-07-21T00:50:06;1.48;;;0.90;;
54665;SDS011;40566;50.006;36.180;2022-07-21T00:55:13;1.85;;;0.90;;
54665;SDS011;40566;50.006;36.180;2022-07-21T01:00:23;2.58;;;1.05;;
54665;SDS011;40566;50.006;36.180;2022-07-21T01:05:26;4.60;;;1.00;;
54665;SDS011;40566;50.006;36.180;2022-07-21T01:10:27;2.55;;;1.00;;
54665;SDS011;40566;50.006;36.180;2022-07-21T01:15:29;2.63;;;1.02;;
54665;SDS011;40566;50.006;36.180;2022-07-21T01:20:31;2.88;;;1.30;;
54665;SDS011;40566;50.006;36.180;2022-07-21T01:25:34;2.83;;;0.90;;
54665;SDS011;40566;50.006;36.180;2022-07-21T01:30:35;2.63;;;1.10;;
54665;SDS011;40566;50.006;36.180;2022-07-21T01:35:36;1.48;;;0.93;;
54665;SDS011;40566;50.006;36.180;2022-07-21T01:40:37;2.75;;;1.08;;
54665;SDS011;40566;50.006;36.180;2022-07-21T01:45:56;1.40;;;0.90;;
54665;SDS011;40566;50.006;36.180;2022-07-21T01:50:57;2.33;;;1.30;;
54665;SDS011;40566;50.006;36.180;2022-07-21T01:55:58;4.43;;;1.27;;
54665;SDS011;40566;50.006;36.180;2022-07-21T02:00:58;4.50;;;1.25;;
54665;SDS011;40566;50.006;36.180;2022-07-21T02:06:00;2.38;;;1.20;;
54665;SDS011;40566;50.006;36.180;2022-07-21T02:11:05;2.38;;;1.17;;
54665;SDS011;40566;50.006;36.180;2022-07-21T02:16:06;3.45;;;1.27;;
54665;SDS011;40566;50.006;36.180;2022-07-21T02:21:07;4.57;;;1.30;;
54665;SDS011;40566;50.006;36.180;2022-07-21T02:26:08;1.85;;;1.00;;
54665;SDS011;40566;50.006;36.180;2022-07-21T02:31:09;2.25;;;0.90;;
54665;SDS011;40566;50.006;36.180;2022-07-21T02:36:10;2.88;;;1.13;;
54665;SDS011;40566;50.006;36.180;2022-07-21T02:41:10;4.93;;;1.25;;
54665;SDS011;40566;50.006;36.180;2022-07-21T02:46:11;4.28;;;1.02;;
54665;SDS011;40566;50.006;36.180;2022-07-21T02:51:12;2.13;;;1.10;;
54665;SDS011;40566;50.006;36.180;2022-07-21T02:56:12;2.58;;;1.10;;
54665;SDS011;40566;50.006;36.180;2022-07-21T03:01:13;3.80;;;1.10;;
54665;SDS011;40566;50.006;36.180;2022-07-21T03:06:14;5.32;;;1.13;;
54665;SDS011;40566;50.006;36.180;2022-07-21T03:11:15;2.90;;;1.05;;
54665;SDS011;40566;50.006;36.180;2022-07-21T03:16:15;2.28;;;1.00;;
54665;SDS011;40566;50.006;36.180;2022-07-21T03:21:16;2.28;;;1.00;;
54665;SDS011;40566;50.006;36.180;2022-07-21T03:26:16;2.45;;;1.15;;
54665;SDS011;40566;50.006;36.180;2022-07-21T03:31:17;3.92;;;1.30;;
54665;SDS011;40566;50.006;36.180;2022-07-21T03:36:18;5.00;;;1.10;;
54665;SDS011;40566;50.006;36.180;2022-07-21T03:41:18;2.35;;;1.20;;
54665;SDS011;40566;50.006;36.180;2022-07-21T03:46:19;4.68;;;1.30;;
54665;SDS011;40566;50.006;36.180;2022-07-21T03:51:19;4.88;;;1.20;;
54665;SDS011;40566;50.006;36.180;2022-07-21T03:56:20;2.45;;;1.20;;
54665;SDS011;40566;50.006;36.180;2022-07-21T04:01:20;3.33;;;1.10;;
54665;SDS011;40566;50.006;36.180;2022-07-21T04:06:21;2.25;;;1.30;;
54665;SDS011;40566;50.006;36.180;2022-07-21T04:11:22;4.28;;;1.40;;
54665;SDS011;40566;50.006;36.180;2022-07-21T04:16:22;1.98;;;1.00;;
54665;SDS011;40566;50.006;36.180;2022-07-21T04:21:23;2.20;;;1.10;;
54665;SDS011;40566;50.006;36.180;2022-07-21T04:26:24;4.85;;;1.38;;
54665;SDS011;40566;50.006;36.180;2022-07-21T04:31:24;2.08;;;1.15;;
54665;SDS011;40566;50.006;36.180;2022-07-21T04:36:25;3.35;;;1.58;;
54665;SDS011;40566;50.006;36.180;2022-07-21T04:41:26;3.13;;;1.30;;
54665;SDS011;40566;50.006;36.180;2022-07-21T04:46:26;2.40;;;1.05;;
54665;SDS011;40566;50.006;36.180;2022-07-21T04:51:27;1.92;;;1.13;;
54665;SDS011;40566;50.006;36.180;2022-07-21T04:56:28;2.95;;;1.40;;
54665;SDS011;40566;50.006;36.180;2022-07-21T05:01:28;3.65;;;1.25;;
54665;SDS011;40566;50.006;36.180;2022-07-21T05:06:29;3.75;;;2.20;;
54665;SDS011;40566;50.006;36.180;2022-07-21T05:11:30;3.38;;;1.40;;
54665;SDS011;40566;50.006;36.180;2022-07-21T05:16:30;2.42;;;1.17;;
54665;SDS011;40566;50.006;36.180;2022-07-21T05:21:31;2.95;;;1.40;;
54665;SDS011;40566;50.006;36.180;2022-07-21T05:26:32;2.67;;;1.02;;
54665;SDS011;40566;50.006;36.180;2022-07-21T05:31:32;6.25;;;1.30;;
54665;SDS011;40566;50.006;36.180;2022-07-21T05:36:33;2.08;;;1.10;;
54665;SDS011;40566;50.006;36.180;2022-07-21T05:41:33;1.90;;;1.05;;
54665;SDS011;40566;50.006;36.180;2022-07-21T05:46:34;1.77;;;1.00;;
54665;SDS011;40566;50.006;36.180;2022-07-21T05:51:35;3.03;;;1.20;;
54665;SDS011;40566;50.006;36.180;2022-07-21T05:56:35;2.17;;;1.10;;
54665;SDS011;40566;50.006;36.180;2022-07-21T06:01:36;1.60;;;1.10;;
54665;SDS011;40566;50.006;36.180;2022-07-21T06:06:36;2.70;;;1.00;;
54665;SDS011;40566;50.006;36.180;2022-07-21T06:11:37;3.03;;;1.10;;
54665;SDS011;40566;50.006;36.180;2022-07-21T06:16:38;5.60;;;0.90;;
54665;SDS011;40566;50.006;36.180;2022-07-21T06:21:38;2.30;;;1.00;;
54665;SDS011;40566;50.006;36.180;2022-07-21T06:26:41;2.88;;;0.95;;
54665;SDS011;40566;50.006;36.180;2022-07-21T06:31:41;3.03;;;1.08;;
54665;SDS011;40566;50.006;36.180;2022-07-21T06:36:42;3.00;;;1.17;;
54665;SDS011;40566;50.006;36.180;2022-07-21T06:41:43;1.95;;;1.10;;
54665;SDS011;40566;50.006;36.180;2022-07-21T06:46:43;4.70;;;1.30;;
54665;SDS011;40566;50.006;36.180;2022-07-21T06:51:44;9.60;;;1.60;;
54665;SDS011;40566;50.006;36.180;2022-07-21T06:56:45;2.20;;;1.08;;
54665;SDS011;40566;50.006;36.180;2022-07-21T07:01:45;6.65;;;1.40;;
54665;SDS011;40566;50.006;36.180;2022-07-21T07:06:46;15.13;;;2.15;;
54665;SDS011;40566;50.006;36.180;2022-07-21T07:11:50;13.98;;;2.22;;
54665;SDS011;40566;50.006;36.180;2022-07-21T07:16:52;7.43;;;1.33;;
54665;SDS011;40566;50.006;36.180;2022-07-21T07:21:53;3.85;;;1.10;;
54665;SDS011;40566;50.006;36.180;2022-07-21T07:26:54;4.07;;;1.60;;
54665;SDS011;40566;50.006;36.180;2022-07-21T07:31:55;2.03;;;1.05;;
54665;SDS011;40566;50.006;36.180;2022-07-21T07:36:55;4.82;;;1.40;;
54665;SDS011;40566;50.006;36.180;2022-07-21T07:41:56;9.85;;;1.73;;
54665;SDS011;40566;50.006;36.180;2022-07-21T07:46:57;3.00;;;1.10;;
54665;SDS011;40566;50.006;36.180;2022-07-21T07:51:58;9.10;;;1.55;;
54665;SDS011;40566;50.006;36.180;2022-07-21T07:56:59;13.00;;;2.03;;
54665;SDS011;40566;50.006;36.180;2022-07-21T08:01:59;1.65;;;1.00;;
54665;SDS011;40566;50.006;36.180;2022-07-21T08:07:00;5.47;;;1.55;;
54665;SDS011;40566;50.006;36.180;2022-07-21T08:12:01;2.42;;;1.13;;
54665;SDS011;40566;50.006;36.180;2022-07-21T08:17:01;9.00;;;1.63;;
54665;SDS011;40566;50.006;36.180;2022-07-21T08:22:02;1.20;;;0.80;;
54665;SDS011;40566;50.006;36.180;2022-07-21T08:27:03;7.95;;;1.65;;
54665;SDS011;40566;50.006;36.180;2022-07-21T08:32:04;3.30;;;1.20;;
54665;SDS011;40566;50.006;36.180;2022-07-21T08:37:05;2.22;;;1.00;;
54665;SDS011;40566;50.006;36.180;2022-07-21T08:42:06;3.65;;;1.25;;
54665;SDS011;40566;50.006;36.180;2022-07-21T08:47:08;2.63;;;1.60;;
54665;SDS011;40566;50.006;36.180;2022-07-21T08:52:09;5.05;;;1.45;;
54665;SDS011;40566;50.006;36.180;2022-07-21T08:57:10;3.53;;;1.45;;
54665;SDS011;40566;50.006;36.180;2022-07-21T09:02:33;5.97;;;1.02;;
54665;SDS011;40566;50.006;36.180;2022-07-21T09:12:52;2.30;;;1.15;;
54665;SDS011;40566;50.006;36.180;2022-07-21T09:18:10;1.50;;;0.93;;
54665;SDS011;40566;50.006;36.180;2022-07-21T09:23:14;6.45;;;1.17;;
54665;SDS011;40566;50.006;36.180;2022-07-21T09:28:19;6.32;;;1.52;;
54665;SDS011;40566;50.006;36.180;2022-07-21T09:33:34;3.40;;;1.15;;
54665;SDS011;40566;50.006;36.180;2022-07-21T09:38:41;6.10;;;1.30;;
54665;SDS011;40566;50.006;36.180;2022-07-21T09:43:45;6.35;;;1.48;;
54665;SDS011;40566;50.006;36.180;2022-07-21T09:48:51;3.30;;;0.90;;
54665;SDS011;40566;50.006;36.180;2022-07-21T09:59:05;2.35;;;1.30;;
54665;SDS011;40566;50.006;36.180;2022-07-21T10:04:08;3.13;;;1.30;;
54665;SDS011;40566;50.006;36.180;2022-07-21T10:09:09;4.82;;;1.10;;
54665;SDS011;40566;50.006;36.180;2022-07-21T10:14:10;6.88;;;1.60;;
54665;SDS011;40566;50.006;36.180;2022-07-21T10:19:28;6.22;;;1.35;;
54665;SDS011;40566;50.006;36.180;2022-07-21T10:24:35;5.13;;;1.40;;
54665;SDS011;40566;50.006;36.180;2022-07-21T10:45:32;7.63;;;1.50;;
54665;SDS011;40566;50.006;36.180;2022-07-21T10:50:38;4.30;;;1.10;;
54665;SDS011;40566;50.006;36.180;2022-07-21T10:55:51;2.33;;;1.30;;
54665;SDS011;40566;50.006;36.180;2022-07-21T11:16:18;7.15;;;1.30;;
54665;SDS011;40566;50.006;36.180;2022-07-21T11:21:19;6.70;;;1.42;;
54665;SDS011;40566;50.006;36.180;2022-07-21T11:26:24;2.70;;;1.23;;
54665;SDS011;40566;50.006;36.180;2022-07-21T11:31:26;3.50;;;1.55;;
54665;SDS011;40566;50.006;36.180;2022-07-21T11:36:28;6.00;;;1.63;;
54665;SDS011;40566;50.006;36.180;2022-07-21T11:41:31;2.90;;;1.20;;
54665;SDS011;40566;50.006;36.180;2022-07-21T11:46:45;2.80;;;1.35;;
54665;SDS011;40566;50.006;36.180;2022-07-21T11:51:57;3.40;;;1.60;;
54665;SDS011;40566;50.006;36.180;2022-07-21T11:57:09;2.70;;;1.30;;
54665;SDS011;40566;50.006;36.180;2022-07-21T12:02:11;3.20;;;1.45;;
54665;SDS011;40566;50.006;36.180;2022-07-21T12:12:41;2.72;;;1.13;;
54665;SDS011;40566;50.006;36.180;2022-07-21T12:22:47;4.93;;;1.58;;
54665;SDS011;40566;50.006;36.180;2022-07-21T12:27:48;3.75;;;1.52;;
54665;SDS011;40566;50.006;36.180;2022-07-21T12:32:50;2.95;;;1.50;;
54665;SDS011;40566;50.006;36.180;2022-07-21T12:37:51;3.03;;;1.38;;
54665;SDS011;40566;50.006;36.180;2022-07-21T12:43:08;3.13;;;1.30;;
54665;SDS011;40566;50.006;36.180;2022-07-21T12:48:20;3.78;;;1.55;;
54665;SDS011;40566;50.006;36.180;2022-07-21T12:53:23;5.40;;;1.42;;
54665;SDS011;40566;50.006;36.180;2022-07-21T12:58:23;5.70;;;1.40;;
54665;SDS011;40566;50.006;36.180;2022-07-21T13:03:27;2.88;;;1.38;;
54665;SDS011;40566;50.006;36.180;2022-07-21T13:08:29;3.08;;;1.73;;
54665;SDS011;40566;50.006;36.180;2022-07-21T13:13:29;3.50;;;1.52;;
54665;SDS011;40566;50.006;36.180;2022-07-21T13:18:30;5.47;;;1.80;;
54665;SDS011;40566;50.006;36.180;2022-07-21T13:23:31;4.70;;;1.50;;
54665;SDS011;40566;50.006;36.180;2022-07-21T13:28:33;3.35;;;1.52;;
54665;SDS011;40566;50.006;36.180;2022-07-21T13:33:35;3.47;;;1.60;;
54665;SDS011;40566;50.006;36.180;2022-07-21T13:38:38;10.00;;;1.80;;
54665;SDS011;40566;50.006;36.180;2022-07-21T13:43:39;5.03;;;1.75;;
54665;SDS011;40566;50.006;36.180;2022-07-21T13:48:40;8.68;;;1.73;;
54665;SDS011;40566;50.006;36.180;2022-07-21T13:53:41;3.72;;;1.60;;
54665;SDS011;40566;50.006;36.180;2022-07-21T13:58:43;4.05;;;1.65;;
54665;SDS011;40566;50.006;36.180;2022-07-21T14:03:45;5.10;;;1.75;;
54665;SDS011;40566;50.006;36.180;2022-07-21T14:08:47;5.85;;;1.75;;
54665;SDS011;40566;50.006;36.180;2022-07-21T14:13:47;4.82;;;1.63;;
54665;SDS011;40566;50.006;36.180;2022-07-21T14:18:48;2.55;;;1.33;;
54665;SDS011;40566;50.006;36.180;2022-07-21T14:23:49;3.10;;;1.40;;
54665;SDS011;40566;50.006;36.180;2022-07-21T14:29:09;4.28;;;1.40;;
54665;SDS011;40566;50.006;36.180;2022-07-21T14:34:10;3.63;;;1.30;;
54665;SDS011;40566;50.006;36.180;2022-07-21T14:39:11;1.70;;;1.10;;
54665;SDS011;40566;50.006;36.180;2022-07-21T14:44:12;2.28;;;1.38;;
54665;SDS011;40566;50.006;36.180;2022-07-21T14:49:13;2.05;;;1.30;;
54665;SDS011;40566;50.006;36.180;2022-07-21T14:54:14;5.43;;;1.30;;
54665;SDS011;40566;50.006;36.180;2022-07-21T14:59:14;2.72;;;1.33;;
54665;SDS011;40566;50.006;36.180;2022-07-21T15:04:15;3.03;;;1.20;;
54665;SDS011;40566;50.006;36.180;2022-07-21T15:09:16;3.03;;;1.50;;
54665;SDS011;40566;50.006;36.180;2022-07-21T15:14:16;2.78;;;1.35;;
54665;SDS011;40566;50.006;36.180;2022-07-21T15:19:17;3.08;;;1.38;;
54665;SDS011;40566;50.006;36.180;2022-07-21T15:24:18;2.58;;;1.30;;
54665;SDS011;40566;50.006;36.180;2022-07-21T15:29:18;6.18;;;1.65;;
54665;SDS011;40566;50.006;36.180;2022-07-21T15:34:19;2.35;;;1.35;;
54665;SDS011;40566;50.006;36.180;2022-07-21T15:39:20;3.08;;;1.48;;
54665;SDS011;40566;50.006;36.180;2022-07-21T15:44:22;3.75;;;1.80;;
54665;SDS011;40566;50.006;36.180;2022-07-21T15:49:23;2.88;;;1.45;;
54665;SDS011;40566;50.006;36.180;2022-07-21T15:54:24;3.33;;;1.40;;
54665;SDS011;40566;50.006;36.180;2022-07-21T15:59:24;6.13;;;1.50;;
54665;SDS011;40566;50.006;36.180;2022-07-21T16:04:34;2.47;;;1.27;;
54665;SDS011;40566;50.006;36.180;2022-07-21T16:09:35;3.28;;;1.27;;
54665;SDS011;40566;50.006;36.180;2022-07-21T16:14:38;5.93;;;1.30;;
54665;SDS011;40566;50.006;36.180;2022-07-21T16:19:39;6.00;;;1.55;;
54665;SDS011;40566;50.006;36.180;2022-07-21T16:24:40;2.60;;;1.15;;
54665;SDS011;40566;50.006;36.180;2022-07-21T16:29:40;2.25;;;1.17;;
54665;SDS011;40566;50.006;36.180;2022-07-21T16:34:41;5.68;;;1.30;;
54665;SDS011;40566;50.006;36.180;2022-07-21T16:39:42;3.42;;;1.13;;
54665;SDS011;40566;50.006;36.180;2022-07-21T16:44:42;1.30;;;0.85;;
54665;SDS011;40566;50.006;36.180;2022-07-21T16:49:43;2.08;;;0.90;;
54665;SDS011;40566;50.006;36.180;2022-07-21T16:54:44;2.17;;;0.95;;
54665;SDS011;40566;50.006;36.180;2022-07-21T16:59:44;2.63;;;0.80;;
54665;SDS011;40566;50.006;36.180;2022-07-21T17:04:45;1.95;;;0.88;;
54665;SDS011;40566;50.006;36.180;2022-07-21T17:09:45;1.88;;;0.90;;
54665;SDS011;40566;50.006;36.180;2022-07-21T17:14:47;2.38;;;1.00;;
54665;SDS011;40566;50.006;36.180;2022-07-21T17:19:48;2.55;;;0.90;;
54665;SDS011;40566;50.006;36.180;2022-07-21T17:24:49;3.03;;;1.10;;
54665;SDS011;40566;50.006;36.180;2022-07-21T17:29:49;2.28;;;1.10;;
54665;SDS011;40566;50.006;36.180;2022-07-21T17:34:50;3.08;;;1.08;;
54665;SDS011;40566;50.006;36.180;2022-07-21T17:39:51;4.22;;;1.42;;
54665;SDS011;40566;50.006;36.180;2022-07-21T17:44:51;3.50;;;1.10;;
54665;SDS011;40566;50.006;36.180;2022-07-21T17:49:52;4.32;;;1.25;;
54665;SDS011;40566;50.006;36.180;2022-07-21T17:54:53;5.13;;;1.23;;
54665;SDS011;40566;50.006;36.180;2022-07-21T17:59:54;4.72;;;1.20;;
54665;SDS011;40566;50.006;36.180;2022-07-21T18:04:55;2.42;;;1.10;;
54665;SDS011;40566;50.006;36.180;2022-07-21T18:09:55;2.47;;;1.15;;
54665;SDS011;40566;50.006;36.180;2022-07-21T18:14:56;2.47;;;1.10;;
54665;SDS011;40566;50.006;36.180;2022-07-21T18:19:57;4.30;;;1.17;;
54665;SDS011;40566;50.006;36.180;2022-07-21T18:24:58;2.60;;;1.20;;
54665;SDS011;40566;50.006;36.180;2022-07-21T18:29:59;2.22;;;1.20;;
54665;SDS011;40566;50.006;36.180;2022-07-21T18:34:59;2.88;;;1.42;;
54665;SDS011;40566;50.006;36.180;2022-07-21T18:40:00;3.38;;;1.20;;
54665;SDS011;40566;50.006;36.180;2022-07-21T18:45:00;2.13;;;1.10;;
54665;SDS011;40566;50.006;36.180;2022-07-21T18:50:02;4.53;;;1.50;;
54665;SDS011;40566;50.006;36.180;2022-07-21T18:55:08;3.05;;;1.33;;
54665;SDS011;40566;50.006;36.180;2022-07-21T19:00:11;5.10;;;1.40;;
54665;SDS011;40566;50.006;36.180;2022-07-21T19:05:14;3.35;;;1.33;;
54665;SDS011;40566;50.006;36.180;2022-07-21T19:10:16;3.17;;;1.63;;
54665;SDS011;40566;50.006;36.180;2022-07-21T19:15:19;2.70;;;1.50;;
54665;SDS011;40566;50.006;36.180;2022-07-21T19:20:20;3.28;;;1.50;;
54665;SDS011;40566;50.006;36.180;2022-07-21T19:25:20;5.13;;;2.10;;
54665;SDS011;40566;50.006;36.180;2022-07-21T19:30:21;4.28;;;1.73;;
54665;SDS011;40566;50.006;36.180;2022-07-21T19:35:23;3.65;;;1.70;;
54665;SDS011;40566;50.006;36.180;2022-07-21T19:40:27;6.53;;;1.60;;
54665;SDS011;40566;50.006;36.180;2022-07-21T19:45:28;4.63;;;1.70;;
54665;SDS011;40566;50.006;36.180;2022-07-21T19:50:29;4.47;;;1.42;;
54665;SDS011;40566;50.006;36.180;2022-07-21T19:55:30;3.47;;;1.55;;
54665;SDS011;40566;50.006;36.180;2022-07-21T20:00:31;2.97;;;1.52;;
54665;SDS011;40566;50.006;36.180;2022-07-21T20:05:32;3.40;;;1.63;;
54665;SDS011;40566;50.006;36.180;2022-07-21T20:10:33;7.72;;;1.83;;
54665;SDS011;40566;50.006;36.180;2022-07-21T20:15:34;6.03;;;1.65;;
54665;SDS011;40566;50.006;36.180;2022-07-21T20:20:35;6.45;;;2.03;;
54665;SDS011;40566;50.006;36.180;2022-07-21T20:25:36;3.75;;;1.80;;
54665;SDS011;40566;50.006;36.180;2022-07-21T20:30:37;9.98;;;2.17;;
54665;SDS011;40566;50.006;36.180;2022-07-21T20:35:37;5.07;;;1.65;;
54665;SDS011;40566;50.006;36.180;2022-07-21T20:40:38;3.78;;;1.55;;
54665;SDS011;40566;50.006;36.180;2022-07-21T20:45:39;3.97;;;1.67;;
54665;SDS011;40566;50.006;36.180;2022-07-21T20:50:40;4.55;;;1.55;;
54665;SDS011;40566;50.006;36.180;2022-07-21T20:55:41;4.13;;;1.90;;
54665;SDS011;40566;50.006;36.180;2022-07-21T21:00:42;4.30;;;1.75;;
54665;SDS011;40566;50.006;36.180;2022-07-21T21:05:43;7.07;;;1.75;;
54665;SDS011;40566;50.006;36.180;2022-07-21T21:10:46;4.30;;;1.60;;
54665;SDS011;40566;50.006;36.180;2022-07-21T21:15:46;5.38;;;1.90;;
54665;SDS011;40566;50.006;36.180;2022-07-21T21:20:47;2.95;;;1.55;;
54665;SDS011;40566;50.006;36.180;2022-07-21T21:25:48;3.38;;;1.58;;
54665;SDS011;40566;50.006;36.180;2022-07-21T21:30:49;7.28;;;2.05;;
54665;SDS011;40566;50.006;36.180;2022-07-21T21:35:50;6.88;;;1.73;;
54665;SDS011;40566;50.006;36.180;2022-07-21T21:40:51;5.22;;;1.92;;
54665;SDS011;40566;50.006;36.180;2022-07-21T21:45:52;3.60;;;1.70;;
54665;SDS011;40566;50.006;36.180;2022-07-21T21:50:53;6.38;;;2.03;;
54665;SDS011;40566;50.006;36.180;2022-07-21T21:55:53;4.63;;;1.88;;
54665;SDS011;40566;50.006;36.180;2022-07-21T22:00:54;5.97;;;2.13;;
54665;SDS011;40566;50.006;36.180;2022-07-21T22:05:54;4.32;;;1.83;;
54665;SDS011;40566;50.006;36.180;2022-07-21T22:10:55;6.38;;;2.40;;
54665;SDS011;40566;50.006;36.180;2022-07-21T22:15:56;5.25;;;1.98;;
54665;SDS011;40566;50.006;36.180;2022-07-21T22:20:56;6.35;;;1.50;;
54665;SDS011;40566;50.006;36.180;2022-07-21T22:25:57;5.50;;;1.88;;
54665;SDS011;40566;50.006;36.180;2022-07-21T22:30:58;5.00;;;2.03;;
54665;SDS011;40566;50.006;36.180;2022-07-21T22:35:59;5.00;;;2.30;;
54665;SDS011;40566;50.006;36.180;2022-07-21T22:40:59;5.40;;;2.20;;
54665;SDS011;40566;50.006;36.180;2022-07-21T22:46:00;6.60;;;2.00;;
54665;SDS011;40566;50.006;36.180;2022-07-21T22:51:03;4.85;;;2.03;;
54665;SDS011;40566;50.006;36.180;2022-07-21T22:56:04;5.10;;;2.55;;
54665;SDS011;40566;50.006;36.180;2022-07-21T23:01:05;5.28;;;2.25;;
54665;SDS011;40566;50.006;36.180;2022-07-21T23:06:06;6.50;;;2.50;;
54665;SDS011;40566;50.006;36.180;2022-07-21T23:11:06;5.35;;;2.33;;
54665;SDS011;40566;50.006;36.180;2022-07-21T23:16:07;5.47;;;2.10;;
54665;SDS011;40566;50.006;36.180;2022-07-21T23:21:08;10.30;;;2.17;;
54665;SDS011;40566;50.006;36.180;2022-07-21T23:26:08;4.95;;;1.92;;
54665;SDS011;40566;50.006;36.180;2022-07-21T23:31:09;8.82;;;2.78;;
54665;SDS011;40566;50.006;36.180;2022-07-21T23:36:10;5.88;;;2.40;;
54665;SDS011;40566;50.006;36.180;2022-07-21T23:41:11;7.55;;;2.33;;
54665;SDS011;40566;50.006;36.180;2022-07-21T23:46:11;6.30;;;2.75;;
54665;SDS011;40566;50.006;36.180;2022-07-21T23:51:12;5.40;;;2.25;;
54665;SDS011;40566;50.006;36.180;2022-07-21T23:56:13;6.63;;;2.55;;
